Le Boreal — FLSY — position and weather

sailwx.info

Track history (hours):
 
Tides and Currents Weather Stations Pressure Air Temp Water Temp Dewpoint Dewpoint Depression Visibility Wind Speed Wind Dir Waves Ship Positions

Le Boreal

Last reported at 2014-Aug-22 19:25 UTC. Time now 2014-Aug-28 13:22 UTC.
Position N 64°04' W 022°10'.

Length 142 m; draft 5 m.

Type: Passenger vessel. MMSI: 578000500.

Date/timePositionNaut miles runAvg speedWind from/ knotsBaromVisibWave heightAir tempDewpointWater temp
2014-Aug-22 19:25N 64°04' W 022°10'5 6.2
2014-Aug-22 18:33N 64°04' W 021°58'0 0.0
2014-Aug-22 17:32N 64°04' W 021°58'0 0.0
2014-Aug-22 16:32N 64°04' W 021°58'0 0.0
2014-Aug-22 15:26N 64°04' W 021°58'0 0.0
2014-Aug-22 14:32N 64°04' W 021°58'0 0.0
2014-Aug-22 13:32N 64°04' W 021°58'0 0.0
2014-Aug-22 12:32N 64°04' W 021°58'0 0.0
2014-Aug-22 11:32N 64°04' W 021°58'0 0.0
2014-Aug-22 10:26N 64°04' W 021°58'0 0.0
2014-Aug-22 09:26N 64°04' W 021°58'0 0.0
2014-Aug-22 08:29N 64°04' W 021°58'0 0.0
2014-Aug-22 07:32N 64°04' W 021°58'0 0.0
2014-Aug-22 06:29N 64°04' W 021°58'0 0.0
2014-Aug-22 05:32N 64°04' W 021°58'0 0.0
2014-Aug-22 04:20N 64°04' W 021°58'0 0.0
2014-Aug-22 03:29N 64°04' W 021°58'0 0.0
2014-Aug-22 02:26N 64°04' W 021°58'0 0.0
2014-Aug-22 01:32N 64°04' W 021°58'0 0.0
2014-Aug-22 00:32N 64°04' W 021°58'0 0.0
2014-Aug-21 23:26N 64°04' W 021°58'0 0.0
2014-Aug-21 22:32N 64°04' W 021°58'0 0.0
2014-Aug-21 21:32N 64°04' W 021°58'0 0.0
2014-Aug-21 20:32N 64°04' W 021°58'0 0.0
2014-Aug-21 19:32N 64°04' W 021°58'0 0.0
2014-Aug-21 18:32N 64°04' W 021°58'0 0.0
2014-Aug-21 17:32N 64°04' W 021°58'0 0.0
2014-Aug-21 16:29N 64°04' W 021°58'0 0.0
2014-Aug-21 15:32N 64°04' W 021°58'0 0.0
2014-Aug-21 14:32N 64°04' W 021°58'0 0.0
2014-Aug-21 13:32N 64°04' W 021°58'0 0.0
2014-Aug-21 12:32N 64°04' W 021°58'0 0.0
2014-Aug-21 11:32N 64°04' W 021°58'0 0.0
2014-Aug-21 10:32N 64°04' W 021°58'0 0.0
2014-Aug-21 09:32N 64°04' W 021°58'0 0.0
2014-Aug-21 08:32N 64°04' W 021°58'0 0.0
2014-Aug-21 07:32N 64°04' W 021°58'0 0.4
2014-Aug-21 06:33N 64°04' W 021°58'7 6.9
2014-Aug-21 05:33N 64°05' W 022°14'9 8.5
2014-Aug-21 04:32N 64°10' W 022°30'58 8.3
2014-Aug-20 21:31N 64°57' W 023°54'1212.8
2014-Aug-20 20:33N 65°00' W 023°26'3 0.3
2014-Aug-20 12:33N 64°59' W 023°21'1211.8
2014-Aug-20 11:33N 65°08' W 023°39'1312.1
2014-Aug-20 10:30N 65°17' W 023°59'12 9.8
2014-Aug-20 09:15N 65°27' W 024°18'  
Track history (hours):
 
Tides and Currents Weather Stations Pressure Air Temp Water Temp Dewpoint Dewpoint Depression Visibility Wind Speed Wind Dir Waves Ship Positions

Le Boreal

Last reported at 2014-Aug-22 19:25 UTC. Time now 2014-Aug-28 13:22 UTC.
Position N 64°04' W 022°10'.

Length 142 m; draft 5 m.

Type: Passenger vessel. MMSI: 578000500.

Date/timePositionNaut miles runAvg speedWind from/ knotsBaromVisibWave heightAir tempDewpointWater temp
2014-Aug-22 19:25N 64°04' W 022°10'5 6.2
2014-Aug-22 18:33N 64°04' W 021°58'0 0.0
2014-Aug-22 17:32N 64°04' W 021°58'0 0.0
2014-Aug-22 16:32N 64°04' W 021°58'0 0.0
2014-Aug-22 15:26N 64°04' W 021°58'0 0.0
2014-Aug-22 14:32N 64°04' W 021°58'0 0.0
2014-Aug-22 13:32N 64°04' W 021°58'0 0.0
2014-Aug-22 12:32N 64°04' W 021°58'0 0.0
2014-Aug-22 11:32N 64°04' W 021°58'0 0.0
2014-Aug-22 10:26N 64°04' W 021°58'0 0.0
2014-Aug-22 09:26N 64°04' W 021°58'0 0.0
2014-Aug-22 08:29N 64°04' W 021°58'0 0.0
2014-Aug-22 07:32N 64°04' W 021°58'0 0.0
2014-Aug-22 06:29N 64°04' W 021°58'0 0.0
2014-Aug-22 05:32N 64°04' W 021°58'0 0.0
2014-Aug-22 04:20N 64°04' W 021°58'0 0.0
2014-Aug-22 03:29N 64°04' W 021°58'0 0.0
2014-Aug-22 02:26N 64°04' W 021°58'0 0.0
2014-Aug-22 01:32N 64°04' W 021°58'0 0.0
2014-Aug-22 00:32N 64°04' W 021°58'0 0.0
2014-Aug-21 23:26N 64°04' W 021°58'0 0.0
2014-Aug-21 22:32N 64°04' W 021°58'0 0.0
2014-Aug-21 21:32N 64°04' W 021°58'0 0.0
2014-Aug-21 20:32N 64°04' W 021°58'0 0.0
2014-Aug-21 19:32N 64°04' W 021°58'0 0.0
2014-Aug-21 18:32N 64°04' W 021°58'0 0.0
2014-Aug-21 17:32N 64°04' W 021°58'0 0.0
2014-Aug-21 16:29N 64°04' W 021°58'0 0.0
2014-Aug-21 15:32N 64°04' W 021°58'0 0.0
2014-Aug-21 14:32N 64°04' W 021°58'0 0.0
2014-Aug-21 13:32N 64°04' W 021°58'0 0.0
2014-Aug-21 12:32N 64°04' W 021°58'0 0.0
2014-Aug-21 11:32N 64°04' W 021°58'0 0.0
2014-Aug-21 10:32N 64°04' W 021°58'0 0.0
2014-Aug-21 09:32N 64°04' W 021°58'0 0.0
2014-Aug-21 08:32N 64°04' W 021°58'0 0.0
2014-Aug-21 07:32N 64°04' W 021°58'0 0.4
2014-Aug-21 06:33N 64°04' W 021°58'7 6.9
2014-Aug-21 05:33N 64°05' W 022°14'9 8.5
2014-Aug-21 04:32N 64°10' W 022°30'58 8.3
2014-Aug-20 21:31N 64°57' W 023°54'1212.8
2014-Aug-20 20:33N 65°00' W 023°26'3 0.3
2014-Aug-20 12:33N 64°59' W 023°21'1211.8
2014-Aug-20 11:33N 65°08' W 023°39'1312.1
2014-Aug-20 10:30N 65°17' W 023°59'12 9.8
2014-Aug-20 09:15N 65°27' W 024°18'  

Dump ship's entire track history